Time;durP1;ratioP1;P1;durP2;ratioP2;P2;SDS_P1;SDS_P2;PMS_P1;PMS_P2;Temp;Humidity;BMP_temperature;BMP_pressure;BME280_temperature;BME280_humidity;BME280_pressure;Samples;Min_cycle;Max_cycle;Signal;HPM_P1;HPM_P2
2023/04/06 00:02:17;;;;;;;10.30;9.50;;;3.70;62.20;;;;;;6264609;28;20327;-83
2023/04/06 00:05:21;;;;;;;10.43;9.53;;;3.70;62.10;;;;;;6285897;28;20858;-82
2023/04/06 00:08:26;;;;;;;10.57;9.57;;;3.70;61.70;;;;;;6274757;28;20324;-84
2023/04/06 00:11:30;;;;;;;10.97;9.87;;;3.70;62.10;;;;;;6283524;28;20253;-81
2023/04/06 00:14:33;;;;;;;10.87;9.87;;;3.60;62.10;;;;;;6278119;28;20233;-82
2023/04/06 00:17:36;;;;;;;12.50;10.07;;;3.60;62.30;;;;;;6288325;28;20235;-83
2023/04/06 00:20:40;;;;;;;11.00;10.10;;;3.60;62.20;;;;;;6289814;28;20287;-84
2023/04/06 00:23:45;;;;;;;10.57;9.77;;;3.50;62.30;;;;;;6277406;28;20372;-79
2023/04/06 00:26:48;;;;;;;10.50;9.50;;;3.60;62.20;;;;;;6285346;28;20240;-83
2023/04/06 00:29:51;;;;;;;9.60;8.90;;;3.60;62.20;;;;;;6285772;28;20429;-83
2023/04/06 00:32:55;;;;;;;10.20;9.40;;;3.60;62.30;;;;;;6284109;28;20238;-84
2023/04/06 00:35:59;;;;;;;11.03;9.93;;;3.60;62.20;;;;;;6291652;28;20232;-81
2023/04/06 00:39:03;;;;;;;9.70;9.00;;;3.70;62.00;;;;;;6286006;28;20237;-79
2023/04/06 00:42:13;;;;;;;9.60;8.70;;;3.70;61.80;;;;;;6268751;28;20243;-83
2023/04/06 00:45:16;;;;;;;9.90;9.10;;;3.70;61.60;;;;;;6287966;28;20717;-83
2023/04/06 00:48:19;;;;;;;9.90;9.20;;;3.60;61.90;;;;;;6281503;28;20230;-79
2023/04/06 00:51:23;;;;;;;9.80;8.97;;;3.60;61.90;;;;;;6289067;28;20416;-83
2023/04/06 00:54:29;;;;;;;10.33;9.40;;;3.60;61.80;;;;;;6289344;28;20237;-84
2023/04/06 00:57:32;;;;;;;9.20;8.50;;;3.50;62.00;;;;;;6288493;28;20241;-83
2023/04/06 01:00:36;;;;;;;9.87;9.17;;;3.50;62.20;;;;;;6286015;28;20492;-84
2023/04/06 01:03:39;;;;;;;10.13;9.33;;;3.50;62.50;;;;;;6285851;28;20631;-84
2023/04/06 01:06:42;;;;;;;9.67;8.73;;;3.50;62.60;;;;;;6284705;28;20237;-80
2023/04/06 01:09:47;;;;;;;9.77;8.97;;;3.30;62.80;;;;;;6290225;28;20268;-83
2023/04/06 01:12:50;;;;;;;10.50;9.60;;;3.30;62.50;;;;;;6289238;28;20256;-84
2023/04/06 01:15:54;;;;;;;9.90;9.03;;;3.30;62.60;;;;;;6282981;28;20267;-78
2023/04/06 01:18:57;;;;;;;11.30;9.67;;;3.40;62.80;;;;;;6288710;28;20239;-84
2023/04/06 01:22:00;;;;;;;10.10;9.00;;;3.30;62.90;;;;;;6288830;28;20233;-84
2023/04/06 01:25:06;;;;;;;10.33;9.43;;;3.30;63.20;;;;;;6289044;28;20432;-83
2023/04/06 01:28:10;;;;;;;9.70;8.87;;;3.20;63.20;;;;;;6289181;28;20316;-84
2023/04/06 01:31:13;;;;;;;8.67;8.07;;;3.30;63.20;;;;;;6289403;28;20297;-82
2023/04/06 01:34:16;;;;;;;9.47;8.63;;;3.30;63.00;;;;;;6286657;28;20233;-77
2023/04/06 01:37:20;;;;;;;9.57;8.70;;;3.20;63.00;;;;;;6291315;28;20772;-78
2023/04/06 01:40:25;;;;;;;8.60;7.90;;;3.10;63.10;;;;;;6319650;28;20270;-79
2023/04/06 01:43:28;;;;;;;9.07;8.37;;;3.20;63.20;;;;;;6313945;28;20216;-76
2023/04/06 01:46:31;;;;;;;8.97;8.17;;;3.30;63.00;;;;;;6319217;28;20245;-78
2023/04/06 01:49:35;;;;;;;9.67;8.27;;;3.20;63.00;;;;;;6318972;28;20245;-77
2023/04/06 01:52:38;;;;;;;8.67;7.87;;;3.20;63.10;;;;;;6318769;28;20237;-79
2023/04/06 01:55:43;;;;;;;8.30;7.80;;;3.20;63.20;;;;;;6318423;28;20225;-79
2023/04/06 01:58:46;;;;;;;9.60;8.90;;;3.20;63.20;;;;;;6303983;28;20719;-80
2023/04/06 02:01:49;;;;;;;8.90;8.17;;;3.20;63.10;;;;;;6291137;28;20694;-78
2023/04/06 02:04:53;;;;;;;9.23;8.53;;;3.30;63.00;;;;;;6290371;28;20843;-82
2023/04/06 02:07:56;;;;;;;9.60;8.80;;;3.30;63.00;;;;;;6286086;28;20236;-79
2023/04/06 02:11:01;;;;;;;8.70;8.10;;;3.20;63.00;;;;;;6289619;28;20761;-83
2023/04/06 02:14:04;;;;;;;9.30;8.43;;;3.10;63.00;;;;;;6285477;28;20241;-82
2023/04/06 02:17:07;;;;;;;9.37;8.47;;;3.10;63.10;;;;;;6286121;28;20233;-81
2023/04/06 02:20:11;;;;;;;11.13;8.90;;;3.10;63.20;;;;;;6284869;28;20675;-81
2023/04/06 02:23:15;;;;;;;9.67;8.87;;;3.10;63.00;;;;;;6276558;28;20236;-81
2023/04/06 02:26:19;;;;;;;8.93;8.30;;;3.10;63.00;;;;;;6294260;28;20281;-77
2023/04/06 02:29:26;;;;;;;8.73;8.00;;;3.10;63.00;;;;;;6310591;28;20251;-80
2023/04/06 02:32:29;;;;;;;8.20;7.70;;;3.10;62.90;;;;;;6317138;28;20293;-79
2023/04/06 02:35:33;;;;;;;8.23;7.63;;;3.10;62.70;;;;;;6315877;28;20292;-76
2023/04/06 02:38:36;;;;;;;8.37;7.67;;;3.10;62.50;;;;;;6311039;28;20248;-76
2023/04/06 02:41:41;;;;;;;8.10;7.37;;;3.00;62.70;;;;;;6316269;28;20310;-77
2023/04/06 02:44:44;;;;;;;8.47;7.73;;;2.90;62.80;;;;;;6291845;28;20272;-81
2023/04/06 02:47:48;;;;;;;12.53;10.07;;;2.90;62.90;;;;;;6277568;28;20395;-79
2023/04/06 02:50:51;;;;;;;9.10;8.33;;;2.80;63.20;;;;;;6288103;28;20233;-80
2023/04/06 02:53:54;;;;;;;8.83;8.13;;;2.80;63.20;;;;;;6285291;28;20832;-81
2023/04/06 02:56:59;;;;;;;8.93;8.33;;;2.80;63.20;;;;;;6286392;28;20228;-83
2023/04/06 03:00:02;;;;;;;9.13;8.40;;;2.80;63.20;;;;;;6279457;28;20294;-83
2023/04/06 03:03:07;;;;;;;9.37;8.47;;;2.80;63.10;;;;;;6290057;28;20300;-83
2023/04/06 03:06:10;;;;;;;8.97;8.37;;;2.70;63.30;;;;;;6287361;28;20688;-80
2023/04/06 03:09:14;;;;;;;8.67;8.07;;;2.60;63.50;;;;;;6280177;28;20720;-80
2023/04/06 03:12:19;;;;;;;10.10;9.30;;;2.50;63.60;;;;;;6289694;28;20247;-83
2023/04/06 03:15:22;;;;;;;10.47;9.63;;;2.50;63.90;;;;;;6279342;28;20225;-81
2023/04/06 03:18:26;;;;;;;10.53;9.63;;;2.50;63.90;;;;;;6275451;28;20237;-81
2023/04/06 03:21:29;;;;;;;11.83;10.93;;;2.40;64.30;;;;;;6280752;28;20237;-82
2023/04/06 03:24:32;;;;;;;11.93;10.93;;;2.40;64.40;;;;;;6280128;28;20229;-82
2023/04/06 03:27:37;;;;;;;12.73;11.60;;;2.30;64.70;;;;;;6287910;28;20240;-80
2023/04/06 03:30:41;;;;;;;12.93;11.90;;;2.30;64.80;;;;;;6287024;28;20619;-81
2023/04/06 03:33:44;;;;;;;13.30;12.17;;;2.20;65.00;;;;;;6271163;28;20241;-79
2023/04/06 03:36:47;;;;;;;12.77;11.80;;;2.20;65.20;;;;;;6293132;28;20223;-76
2023/04/06 03:40:06;;;;;;;11.87;10.70;;;2.10;65.40;;;;;;6289501;28;20267;-83
2023/04/06 03:43:11;;;;;;;12.10;10.97;;;2.10;65.40;;;;;;6280093;28;20237;-83
2023/04/06 03:46:15;;;;;;;13.27;12.17;;;2.10;65.50;;;;;;6283946;28;20245;-82
2023/04/06 03:49:18;;;;;;;13.50;12.30;;;2.00;65.60;;;;;;6297587;28;20239;-81
2023/04/06 03:52:22;;;;;;;12.50;11.40;;;2.00;65.80;;;;;;6291074;28;20335;-81
2023/04/06 03:55:26;;;;;;;13.47;12.17;;;1.90;65.80;;;;;;6283579;28;20233;-79
2023/04/06 03:58:30;;;;;;;12.73;11.83;;;1.90;65.80;;;;;;6285588;28;20712;-79
2023/04/06 04:01:34;;;;;;;13.10;12.00;;;1.90;66.00;;;;;;6271673;28;20356;-79
2023/04/06 04:04:37;;;;;;;13.13;11.90;;;1.80;66.00;;;;;;6279308;28;20395;-77
2023/04/06 04:07:40;;;;;;;12.33;11.23;;;1.80;66.00;;;;;;6284064;28;20312;-79
2023/04/06 04:10:43;;;;;;;14.80;13.50;;;1.70;66.00;;;;;;6283261;28;20359;-79
2023/04/06 04:13:48;;;;;;;13.50;12.20;;;1.70;66.10;;;;;;6279039;28;20397;-78
2023/04/06 04:16:52;;;;;;;12.80;11.73;;;1.70;66.10;;;;;;6282012;28;20237;-79
2023/04/06 04:19:56;;;;;;;12.67;11.47;;;1.60;66.20;;;;;;6288574;28;20229;-78
2023/04/06 04:22:59;;;;;;;14.90;13.50;;;1.60;66.30;;;;;;6280964;28;20239;-77
2023/04/06 04:26:02;;;;;;;14.40;12.20;;;1.60;66.50;;;;;;6287925;28;20241;-79
2023/04/06 04:29:07;;;;;;;13.70;12.43;;;1.60;66.70;;;;;;6287432;28;20705;-79
2023/04/06 04:32:11;;;;;;;13.70;12.50;;;1.60;67.10;;;;;;6287061;28;20480;-79
2023/04/06 04:35:14;;;;;;;13.57;12.40;;;1.60;67.20;;;;;;6288573;28;20495;-78
2023/04/06 04:38:18;;;;;;;13.00;11.87;;;1.50;67.20;;;;;;6286437;28;20717;-77
2023/04/06 04:41:22;;;;;;;14.40;13.10;;;1.50;67.20;;;;;;6287758;28;20233;-78
2023/04/06 04:44:26;;;;;;;14.27;13.07;;;1.50;67.70;;;;;;6287149;28;20229;-79
2023/04/06 04:47:30;;;;;;;14.07;12.70;;;1.50;67.90;;;;;;6285121;28;20463;-79
2023/04/06 04:50:33;;;;;;;13.60;12.50;;;1.50;68.10;;;;;;6289034;28;20238;-77
2023/04/06 04:53:36;;;;;;;13.27;11.87;;;1.60;68.90;;;;;;6287435;28;20319;-77
2023/04/06 04:56:39;;;;;;;13.37;12.23;;;1.60;69.10;;;;;;6285793;28;20244;-80
2023/04/06 04:59:44;;;;;;;13.30;12.03;;;1.60;69.20;;;;;;6288664;28;20237;-78
2023/04/06 05:02:47;;;;;;;13.30;12.17;;;1.50;69.90;;;;;;6281790;28;20229;-77
2023/04/06 05:05:50;;;;;;;12.77;11.70;;;1.50;70.00;;;;;;6287591;28;20233;-80
2023/04/06 05:08:54;;;;;;;13.07;11.83;;;1.50;70.00;;;;;;6287531;28;20230;-82
2023/04/06 05:11:57;;;;;;;13.27;12.17;;;1.60;70.00;;;;;;6287858;28;20320;-79
2023/04/06 05:15:01;;;;;;;11.33;10.47;;;1.60;70.30;;;;;;6284535;28;20237;-78
2023/04/06 05:18:05;;;;;;;13.27;11.90;;;1.70;70.10;;;;;;6286384;28;20233;-79
2023/04/06 05:21:10;;;;;;;12.10;11.00;;;1.70;70.20;;;;;;6281928;28;20316;-77
2023/04/06 05:24:13;;;;;;;12.10;11.10;;;1.70;70.00;;;;;;6286005;28;20233;-77
2023/04/06 05:27:17;;;;;;;12.80;11.63;;;1.80;70.00;;;;;;6287422;28;20229;-79
2023/04/06 05:30:22;;;;;;;12.03;11.13;;;1.80;70.00;;;;;;6282726;28;20249;-77
2023/04/06 05:33:26;;;;;;;11.97;10.80;;;1.90;69.90;;;;;;6287076;28;20480;-81
2023/04/06 05:36:31;;;;;;;11.90;10.73;;;1.90;69.90;;;;;;6285592;28;20244;-77
2023/04/06 05:39:35;;;;;;;11.63;10.77;;;2.00;69.80;;;;;;6284212;28;20238;-77
2023/04/06 05:42:39;;;;;;;13.07;11.77;;;2.10;69.50;;;;;;6285981;28;20232;-77
2023/04/06 05:45:45;;;;;;;11.63;10.63;;;2.10;69.30;;;;;;6287178;28;20233;-80
2023/04/06 05:48:48;;;;;;;12.90;11.50;;;2.10;69.20;;;;;;6280922;28;20618;-81
2023/04/06 05:51:51;;;;;;;14.90;11.37;;;2.20;69.10;;;;;;6288032;28;20237;-78
2023/04/06 05:54:55;;;;;;;12.33;10.80;;;2.30;69.10;;;;;;6285918;28;20233;-79
2023/04/06 05:57:58;;;;;;;19.30;11.97;;;2.40;68.90;;;;;;6283397;28;20221;-75
2023/04/06 06:01:04;;;;;;;13.23;11.80;;;2.50;68.30;;;;;;6285155;28;20470;-78
2023/04/06 06:04:08;;;;;;;12.40;11.40;;;2.50;67.60;;;;;;6289410;28;20229;-78
2023/04/06 06:07:11;;;;;;;16.03;10.97;;;2.70;67.30;;;;;;6284654;28;20230;-79
2023/04/06 06:10:14;;;;;;;11.00;10.10;;;2.80;67.20;;;;;;6285262;28;20233;-77
2023/04/06 06:13:18;;;;;;;12.60;11.17;;;2.90;66.80;;;;;;6286669;28;20316;-79
2023/04/06 06:16:22;;;;;;;11.30;10.20;;;3.20;66.80;;;;;;6284975;28;20241;-79
2023/04/06 06:19:25;;;;;;;11.00;9.87;;;4.50;64.10;;;;;;6285772;28;20245;-79
2023/04/06 06:22:29;;;;;;;10.60;9.67;;;5.00;61.50;;;;;;6286653;28;20244;-78
2023/04/06 06:25:34;;;;;;;10.43;9.43;;;5.00;60.80;;;;;;6281201;28;20241;-78
2023/04/06 06:28:38;;;;;;;11.30;10.20;;;4.70;61.00;;;;;;6274030;28;20241;-79
2023/04/06 06:31:42;;;;;;;11.13;10.00;;;4.70;61.60;;;;;;6286840;28;20274;-80
2023/04/06 06:34:45;;;;;;;11.40;10.30;;;5.20;60.70;;;;;;6285034;28;20256;-79
2023/04/06 06:37:49;;;;;;;12.50;11.30;;;5.50;59.30;;;;;;6284622;28;20273;-80
2023/04/06 06:40:53;;;;;;;11.30;10.33;;;5.50;58.80;;;;;;6285728;28;20321;-78
2023/04/06 06:43:56;;;;;;;11.30;10.23;;;5.40;59.20;;;;;;6286403;28;20240;-78
2023/04/06 06:47:00;;;;;;;12.50;10.17;;;5.40;59.30;;;;;;6285251;28;20442;-81
2023/04/06 06:50:04;;;;;;;10.57;9.47;;;5.50;59.30;;;;;;6286235;28;20234;-77
2023/04/06 06:53:07;;;;;;;10.87;10.03;;;5.60;58.40;;;;;;6285062;28;20605;-78
2023/04/06 06:56:12;;;;;;;13.13;10.30;;;5.60;58.60;;;;;;6295450;28;20237;-76
2023/04/06 06:59:17;;;;;;;9.80;8.87;;;6.00;58.80;;;;;;6295237;28;20259;-77
2023/04/06 07:02:21;;;;;;;14.20;10.47;;;6.90;56.60;;;;;;6294163;28;20265;-76
2023/04/06 07:05:25;;;;;;;9.57;8.67;;;7.10;55.50;;;;;;6295963;28;20244;-79
2023/04/06 07:08:31;;;;;;;15.13;9.30;;;7.00;55.50;;;;;;6293984;28;20241;-76
2023/04/06 07:11:35;;;;;;;9.27;8.50;;;6.90;55.40;;;;;;6296743;28;20233;-76
2023/04/06 07:14:38;;;;;;;8.83;8.23;;;6.60;55.50;;;;;;6290736;28;20237;-79
2023/04/06 07:17:44;;;;;;;9.00;8.20;;;6.60;55.70;;;;;;6291964;28;20596;-78
2023/04/06 07:20:48;;;;;;;9.63;8.80;;;6.60;55.70;;;;;;6290205;28;20343;-75
2023/04/06 07:23:51;;;;;;;9.37;8.60;;;6.60;55.90;;;;;;6293067;28;20237;-77
2023/04/06 07:26:55;;;;;;;8.67;7.97;;;6.80;55.20;;;;;;6294907;28;20229;-78
2023/04/06 07:29:58;;;;;;;9.93;9.10;;;6.80;55.40;;;;;;6289059;28;20319;-76
2023/04/06 07:33:03;;;;;;;9.13;8.40;;;6.50;55.00;;;;;;6292969;28;20752;-77
2023/04/06 07:36:07;;;;;;;9.07;7.67;;;6.40;55.40;;;;;;6286474;28;20225;-78
2023/04/06 07:39:10;;;;;;;10.23;9.17;;;6.60;55.30;;;;;;6298817;28;20235;-76
2023/04/06 07:42:13;;;;;;;9.03;7.60;;;6.80;54.80;;;;;;6275799;28;20236;-77
2023/04/06 07:45:16;;;;;;;8.47;7.90;;;6.80;54.10;;;;;;6290049;28;20300;-78
2023/04/06 07:48:21;;;;;;;9.03;8.13;;;6.80;54.30;;;;;;6294478;28;20721;-77
2023/04/06 07:51:25;;;;;;;10.60;8.20;;;7.00;54.30;;;;;;6298993;28;20324;-76
2023/04/06 07:54:28;;;;;;;8.10;7.60;;;6.90;54.40;;;;;;6299733;28;20244;-78
2023/04/06 07:57:31;;;;;;;7.40;6.90;;;7.00;53.70;;;;;;6298725;28;20439;-76
2023/04/06 08:00:35;;;;;;;7.77;6.90;;;7.20;52.60;;;;;;6295805;28;20624;-76
2023/04/06 08:03:41;;;;;;;10.00;7.23;;;7.10;53.00;;;;;;6304244;28;20241;-76
2023/04/06 08:06:44;;;;;;;7.57;6.87;;;7.30;52.50;;;;;;6288629;28;20229;-77
2023/04/06 08:09:48;;;;;;;7.33;6.63;;;7.20;52.40;;;;;;6296513;28;20521;-79
2023/04/06 08:12:51;;;;;;;7.57;7.10;;;7.20;52.20;;;;;;6294745;28;20229;-79
2023/04/06 08:15:54;;;;;;;7.20;6.50;;;7.50;51.90;;;;;;6289901;28;20728;-78
2023/04/06 08:18:59;;;;;;;7.50;7.00;;;7.50;51.20;;;;;;6286252;28;20230;-80
2023/04/06 08:22:04;;;;;;;7.40;6.70;;;7.60;51.20;;;;;;6289150;28;20732;-81
2023/04/06 08:25:07;;;;;;;7.67;6.80;;;7.70;50.70;;;;;;6288846;28;20255;-78
2023/04/06 08:28:11;;;;;;;6.87;6.40;;;7.60;51.40;;;;;;6288448;28;20278;-81
2023/04/06 08:31:14;;;;;;;6.90;6.30;;;7.80;50.70;;;;;;6282687;28;20235;-82
2023/04/06 08:34:18;;;;;;;6.17;5.80;;;7.90;51.00;;;;;;6289548;28;20370;-78
2023/04/06 08:37:22;;;;;;;5.47;5.17;;;8.00;49.40;;;;;;6290462;28;20229;-79
2023/04/06 08:40:27;;;;;;;5.70;5.30;;;8.20;48.90;;;;;;6288692;28;20315;-79
2023/04/06 08:43:31;;;;;;;6.87;5.27;;;8.00;48.60;;;;;;6289683;28;20320;-78
2023/04/06 08:46:35;;;;;;;5.83;5.17;;;8.10;49.00;;;;;;6287729;28;20233;-79
2023/04/06 08:49:40;;;;;;;5.77;5.50;;;8.30;48.30;;;;;;6287478;28;20229;-80
2023/04/06 08:52:44;;;;;;;8.30;7.47;;;8.30;48.10;;;;;;6287918;28;20729;-80
2023/04/06 08:55:48;;;;;;;6.30;5.70;;;8.30;48.80;;;;;;6289292;28;20222;-81
2023/04/06 08:58:54;;;;;;;5.80;5.23;;;8.50;48.10;;;;;;6288805;28;20703;-78
2023/04/06 09:01:58;;;;;;;4.73;4.43;;;8.50;47.30;;;;;;6286250;28;20237;-80
2023/04/06 09:05:03;;;;;;;4.00;3.80;;;8.60;47.00;;;;;;6289301;28;20230;-77
2023/04/06 09:08:06;;;;;;;4.37;4.07;;;8.80;46.20;;;;;;6289147;28;20656;-78
2023/04/06 09:11:10;;;;;;;4.67;4.33;;;8.90;46.20;;;;;;6285933;28;20622;-75
2023/04/06 09:14:14;;;;;;;4.70;4.50;;;8.90;45.90;;;;;;6288477;28;20500;-79
2023/04/06 09:17:22;;;;;;;4.87;4.60;;;9.00;46.50;;;;;;6288758;28;20260;-81
2023/04/06 09:20:28;;;;;;;4.70;4.40;;;8.70;46.30;;;;;;6289543;28;20249;-78
2023/04/06 09:23:32;;;;;;;5.10;4.70;;;8.90;45.70;;;;;;6286306;28;20237;-79
2023/04/06 09:26:48;;;;;;;5.00;4.60;;;9.20;45.50;;;;;;6287401;28;20237;-79
2023/04/06 09:29:51;;;;;;;5.90;5.50;;;9.20;45.50;;;;;;6287702;28;20233;-79
2023/04/06 09:32:56;;;;;;;4.50;4.20;;;9.40;45.40;;;;;;6286814;28;20697;-81
2023/04/06 09:36:03;;;;;;;4.60;4.30;;;9.50;45.60;;;;;;6291412;28;20225;-81
2023/04/06 09:39:06;;;;;;;4.80;4.50;;;9.60;44.90;;;;;;6288641;28;20236;-78
2023/04/06 09:42:09;;;;;;;4.33;4.03;;;9.50;45.20;;;;;;6285296;28;20236;-78
2023/04/06 09:45:12;;;;;;;4.37;4.10;;;9.60;43.70;;;;;;6288762;28;20249;-78
2023/04/06 09:48:16;;;;;;;4.33;3.90;;;9.60;43.80;;;;;;6290350;28;20683;-79
2023/04/06 09:51:21;;;;;;;4.70;3.97;;;9.60;43.40;;;;;;6285533;28;20237;-79
2023/04/06 09:54:28;;;;;;;3.93;3.83;;;9.60;43.70;;;;;;6287940;28;20245;-80
2023/04/06 09:57:35;;;;;;;4.03;3.73;;;9.80;42.90;;;;;;6262037;28;20305;-78
2023/04/06 10:00:45;;;;;;;4.47;4.17;;;9.80;42.80;;;;;;6286130;28;20316;-76
2023/04/06 10:03:55;;;;;;;4.30;4.10;;;9.90;43.60;;;;;;6290152;28;20230;-80
2023/04/06 10:07:01;;;;;;;4.20;4.00;;;9.80;44.20;;;;;;6279271;28;20252;-81
2023/04/06 10:10:05;;;;;;;4.50;4.23;;;9.90;44.00;;;;;;6272232;28;20706;-80
2023/04/06 10:13:10;;;;;;;3.90;3.70;;;10.10;43.20;;;;;;6283061;28;20234;-79
2023/04/06 10:16:15;;;;;;;4.30;4.10;;;10.00;43.40;;;;;;6278625;28;20225;-80
2023/04/06 10:19:23;;;;;;;4.33;3.90;;;9.90;42.50;;;;;;6278792;28;20240;-77
2023/04/06 10:22:37;;;;;;;5.80;4.13;;;10.10;42.80;;;;;;6286180;28;20237;-79
2023/04/06 10:25:40;;;;;;;3.27;3.27;;;10.50;42.90;;;;;;6282031;28;20616;-80
2023/04/06 10:28:46;;;;;;;3.67;3.47;;;10.50;41.80;;;;;;6286806;28;20705;-81
2023/04/06 10:31:50;;;;;;;3.50;3.40;;;10.60;40.40;;;;;;6278156;28;20572;-79
2023/04/06 10:34:53;;;;;;;3.60;3.40;;;10.70;40.30;;;;;;6288545;28;20237;-79
2023/04/06 10:38:05;;;;;;;3.20;3.20;;;10.40;39.70;;;;;;6281281;28;20237;-80
2023/04/06 10:41:10;;;;;;;4.57;4.20;;;10.30;39.70;;;;;;6286238;28;20579;-81
2023/04/06 10:44:21;;;;;;;3.77;3.67;;;10.50;41.00;;;;;;6286612;28;20233;-79
2023/04/06 10:47:24;;;;;;;3.40;3.30;;;10.60;41.00;;;;;;6282414;28;20298;-80
2023/04/06 10:50:30;;;;;;;4.23;3.83;;;10.60;39.80;;;;;;6287012;28;20722;-80
2023/04/06 10:53:35;;;;;;;3.47;3.37;;;10.60;40.00;;;;;;6286241;28;20233;-78
2023/04/06 10:56:39;;;;;;;4.07;3.70;;;10.30;40.80;;;;;;6283569;28;20676;-79
2023/04/06 10:59:44;;;;;;;4.07;3.90;;;10.40;40.70;;;;;;6286601;28;20267;-80
2023/04/06 11:02:50;;;;;;;3.90;3.60;;;10.30;41.00;;;;;;6281622;28;20241;-81
2023/04/06 11:05:54;;;;;;;4.30;3.70;;;10.50;40.20;;;;;;6278743;28;20221;-77
2023/04/06 11:08:59;;;;;;;5.07;3.87;;;10.90;40.20;;;;;;6285446;28;20613;-78
2023/04/06 11:12:02;;;;;;;4.30;4.00;;;10.50;41.00;;;;;;6279777;28;20608;-81
2023/04/06 11:15:06;;;;;;;4.17;3.97;;;10.70;41.20;;;;;;6286551;28;20246;-80
2023/04/06 11:18:11;;;;;;;3.97;3.77;;;10.90;41.10;;;;;;6285509;28;20360;-80
2023/04/06 11:21:14;;;;;;;3.33;3.30;;;10.90;40.00;;;;;;6284876;28;20657;-80
2023/04/06 11:24:20;;;;;;;3.57;3.47;;;11.00;39.70;;;;;;6284016;28;20236;-78
2023/04/06 11:27:25;;;;;;;4.20;3.90;;;11.00;39.30;;;;;;6284351;28;20701;-79
2023/04/06 11:30:28;;;;;;;4.10;3.80;;;11.10;39.00;;;;;;6284342;28;20658;-79
2023/04/06 11:33:37;;;;;;;3.57;3.37;;;11.30;40.70;;;;;;6286794;28;20291;-81
2023/04/06 11:36:43;;;;;;;4.60;4.30;;;11.40;40.10;;;;;;6284787;28;20241;-79
2023/04/06 11:39:51;;;;;;;4.30;4.00;;;11.20;39.70;;;;;;6285563;28;20371;-80
2023/04/06 11:42:55;;;;;;;4.17;3.97;;;11.30;39.70;;;;;;6285178;28;20612;-79
2023/04/06 11:46:02;;;;;;;6.83;4.00;;;11.30;40.30;;;;;;6283979;28;20245;-77
2023/04/06 11:49:06;;;;;;;3.80;3.53;;;11.70;40.70;;;;;;6285857;28;20342;-78
2023/04/06 11:52:17;;;;;;;4.10;3.90;;;11.70;39.80;;;;;;6285058;28;20238;-78
2023/04/06 11:55:22;;;;;;;3.87;3.67;;;11.40;39.60;;;;;;6280638;28;20308;-78
2023/04/06 11:58:26;;;;;;;3.50;3.40;;;11.50;39.90;;;;;;6285232;28;20474;-81
2023/04/06 12:01:31;;;;;;;4.20;3.90;;;11.70;39.50;;;;;;6278220;28;20324;-78
2023/04/06 12:04:41;;;;;;;3.73;3.53;;;11.70;40.10;;;;;;6284430;28;20249;-81
2023/04/06 12:07:44;;;;;;;3.67;3.57;;;11.80;39.30;;;;;;6283803;28;20723;-80
2023/04/06 12:10:49;;;;;;;4.07;3.80;;;12.00;39.10;;;;;;6284418;28;20242;-79
2023/04/06 12:13:52;;;;;;;4.00;3.80;;;11.90;38.90;;;;;;6285037;28;20226;-78
2023/04/06 12:16:58;;;;;;;4.33;3.97;;;12.00;38.90;;;;;;6286179;28;20376;-81
2023/04/06 12:20:02;;;;;;;3.80;3.70;;;12.10;39.20;;;;;;6285996;28;20237;-80
2023/04/06 12:23:15;;;;;;;4.20;4.00;;;12.20;38.20;;;;;;6284918;28;20234;-80
2023/04/06 12:26:20;;;;;;;3.90;3.80;;;11.90;38.60;;;;;;6285770;28;20225;-79
2023/04/06 12:29:25;;;;;;;4.33;4.03;;;11.70;38.40;;;;;;6300061;28;20234;-78
2023/04/06 12:32:28;;;;;;;4.33;3.83;;;11.50;39.10;;;;;;6311702;28;20240;-76
2023/04/06 12:35:35;;;;;;;3.50;3.40;;;11.50;39.40;;;;;;6315194;28;20233;-76
2023/04/06 12:38:39;;;;;;;3.83;3.70;;;11.70;39.30;;;;;;6320041;28;20277;-75
2023/04/06 12:41:44;;;;;;;3.73;3.53;;;11.80;38.80;;;;;;6320123;28;20230;-76
2023/04/06 12:44:48;;;;;;;4.50;4.10;;;11.60;38.90;;;;;;6320346;28;20221;-77
2023/04/06 12:47:54;;;;;;;6.63;4.30;;;11.50;39.40;;;;;;6319289;28;20285;-77
2023/04/06 12:50:59;;;;;;;3.90;3.60;;;11.40;39.00;;;;;;6313726;28;20247;-78
2023/04/06 12:54:03;;;;;;;3.93;3.80;;;11.40;39.70;;;;;;6317940;28;20292;-77
2023/04/06 12:57:07;;;;;;;3.87;3.77;;;11.70;39.10;;;;;;6316308;28;20289;-77
2023/04/06 13:00:11;;;;;;;4.20;4.10;;;11.90;39.70;;;;;;6300341;28;20257;-78
2023/04/06 13:03:15;;;;;;;3.63;3.40;;;12.30;39.20;;;;;;6291269;28;20260;-80
2023/04/06 13:06:18;;;;;;;3.77;3.67;;;12.50;39.00;;;;;;6290334;28;20394;-80
2023/04/06 13:09:22;;;;;;;3.60;3.40;;;12.50;38.60;;;;;;6289836;28;20782;-79
2023/04/06 13:12:26;;;;;;;3.90;3.70;;;12.70;38.80;;;;;;6288762;28;20610;-80
2023/04/06 13:15:30;;;;;;;4.10;3.80;;;12.60;39.70;;;;;;6290696;28;20326;-80
2023/04/06 13:18:34;;;;;;;3.63;3.50;;;12.20;40.00;;;;;;6289308;28;20244;-80
2023/04/06 13:21:37;;;;;;;4.03;3.83;;;12.10;40.00;;;;;;6288045;28;20370;-78
2023/04/06 13:24:40;;;;;;;3.63;3.53;;;12.20;40.00;;;;;;6289599;28;20225;-79
2023/04/06 13:27:47;;;;;;;4.50;4.30;;;12.20;40.40;;;;;;6289038;28;20233;-80
2023/04/06 13:30:50;;;;;;;4.57;4.17;;;11.90;40.00;;;;;;6288146;28;20240;-80
2023/04/06 13:33:53;;;;;;;4.80;4.53;;;11.50;40.40;;;;;;6288879;28;20236;-77
2023/04/06 13:36:57;;;;;;;3.63;3.43;;;11.30;40.70;;;;;;6279499;28;20343;-78
2023/04/06 13:40:00;;;;;;;4.10;3.80;;;11.30;40.50;;;;;;6311163;28;20241;-76
2023/04/06 13:43:05;;;;;;;4.23;4.03;;;11.50;41.10;;;;;;6318562;28;20284;-78
2023/04/06 13:46:09;;;;;;;4.50;4.10;;;11.70;40.50;;;;;;6318514;28;20221;-77
2023/04/06 13:49:12;;;;;;;3.90;3.80;;;11.70;39.30;;;;;;6318292;28;20213;-79
2023/04/06 13:52:16;;;;;;;4.03;3.93;;;12.00;39.70;;;;;;6318257;28;20229;-77
2023/04/06 13:55:19;;;;;;;4.37;4.00;;;12.30;40.10;;;;;;6315387;28;20237;-77
2023/04/06 13:58:24;;;;;;;3.73;3.63;;;12.40;40.10;;;;;;6311576;28;20284;-79
2023/04/06 14:01:27;;;;;;;4.07;3.80;;;12.50;40.20;;;;;;6295683;28;20245;-79
2023/04/06 14:04:30;;;;;;;4.13;3.83;;;12.50;40.30;;;;;;6292512;28;20263;-81
2023/04/06 14:07:34;;;;;;;3.73;3.63;;;12.50;40.30;;;;;;6288734;28;20396;-79
2023/04/06 14:10:40;;;;;;;3.97;3.77;;;12.30;40.10;;;;;;6285646;28;20317;-79
2023/04/06 14:13:44;;;;;;;4.87;3.73;;;12.10;40.20;;;;;;6287010;28;20229;-83
2023/04/06 14:16:48;;;;;;;3.40;3.30;;;12.20;40.50;;;;;;6287461;28;20256;-80
2023/04/06 14:19:52;;;;;;;3.83;3.63;;;12.50;40.40;;;;;;6286952;28;20240;-80
2023/04/06 14:22:55;;;;;;;3.40;3.30;;;12.70;39.60;;;;;;6286453;28;20361;-80
2023/04/06 14:26:03;;;;;;;3.90;3.60;;;12.60;40.20;;;;;;6286243;28;20320;-81
2023/04/06 14:29:08;;;;;;;3.73;3.63;;;12.80;39.50;;;;;;6278696;28;20230;-80
2023/04/06 14:32:11;;;;;;;4.17;3.90;;;12.90;39.80;;;;;;6285118;28;20240;-80
2023/04/06 14:35:14;;;;;;;3.73;3.63;;;13.00;39.10;;;;;;6286246;28;20237;-80
2023/04/06 14:38:17;;;;;;;3.80;3.70;;;12.70;39.30;;;;;;6284496;28;20625;-78
2023/04/06 14:41:22;;;;;;;3.37;3.37;;;12.50;39.80;;;;;;6285785;28;20241;-78
2023/04/06 14:44:27;;;;;;;4.40;4.10;;;12.30;39.60;;;;;;6285288;28;20316;-78
2023/04/06 14:47:30;;;;;;;3.97;3.87;;;12.00;39.50;;;;;;6285155;28;20248;-80
2023/04/06 14:50:34;;;;;;;4.47;4.20;;;11.90;40.00;;;;;;6285599;28;20237;-78
2023/04/06 14:53:37;;;;;;;4.13;4.03;;;11.50;39.80;;;;;;6277109;28;20498;-81
2023/04/06 14:56:40;;;;;;;3.93;3.73;;;11.30;40.60;;;;;;6284287;28;20316;-79
2023/04/06 14:59:44;;;;;;;4.07;3.83;;;11.10;41.30;;;;;;6285286;28;20225;-80
2023/04/06 15:02:47;;;;;;;3.90;3.70;;;11.20;40.60;;;;;;6274935;28;20252;-80
2023/04/06 15:05:51;;;;;;;4.13;3.93;;;11.40;40.90;;;;;;6286023;28;20268;-80
2023/04/06 15:08:54;;;;;;;3.90;3.70;;;11.50;41.00;;;;;;6284937;28;20354;-80
2023/04/06 15:11:57;;;;;;;4.43;4.20;;;11.70;40.30;;;;;;6284487;28;20252;-80
2023/04/06 15:15:06;;;;;;;3.77;3.57;;;11.80;40.80;;;;;;6284918;28;20713;-79
2023/04/06 15:18:09;;;;;;;4.30;4.10;;;11.90;40.20;;;;;;6276860;28;20320;-79
2023/04/06 15:21:12;;;;;;;4.60;4.30;;;12.10;39.90;;;;;;6284739;28;20234;-80
2023/04/06 15:24:15;;;;;;;3.83;3.73;;;12.00;40.20;;;;;;6285409;28;20235;-80
2023/04/06 15:27:18;;;;;;;4.30;4.10;;;11.90;40.20;;;;;;6278720;28;20656;-79
2023/04/06 15:30:23;;;;;;;3.60;3.50;;;12.00;39.90;;;;;;6284279;28;20229;-80
2023/04/06 15:33:26;;;;;;;4.67;4.37;;;12.00;40.00;;;;;;6291509;28;20226;-80
2023/04/06 15:36:30;;;;;;;4.30;4.00;;;12.20;39.80;;;;;;6283495;28;20382;-81
2023/04/06 15:39:33;;;;;;;3.70;3.60;;;12.30;40.00;;;;;;6284274;28;20233;-81
2023/04/06 15:42:36;;;;;;;4.20;4.10;;;12.20;39.80;;;;;;6284013;28;20225;-81
2023/04/06 15:45:41;;;;;;;4.80;4.60;;;12.20;40.00;;;;;;6284529;28;20229;-80
2023/04/06 15:48:44;;;;;;;4.60;4.30;;;12.10;40.30;;;;;;6281065;28;20746;-79
2023/04/06 15:51:48;;;;;;;4.50;4.20;;;11.80;40.00;;;;;;6280076;28;20232;-78
2023/04/06 15:54:51;;;;;;;4.50;4.20;;;11.50;40.60;;;;;;6275286;28;20328;-81
2023/04/06 15:57:54;;;;;;;4.30;4.10;;;11.40;40.90;;;;;;6278984;28;20722;-79
2023/04/06 16:00:58;;;;;;;4.70;4.30;;;11.10;40.70;;;;;;6283632;28;20225;-78